Terminal Aerodrome Forecast
Issued by NWS

Home | Current Version | Previous Version | Text Only | Print | Product List | Glossary On
Versions: 1 2 3 4 5 6 7 8 9 10 11 12 13 14 15 16 17 18 19
000
FTUS43 KICT 292322
TAFRSL
TAF
KRSL 292322Z 3000/3024 34015G22KT P6SM VCTS SCT040 BKN100CB
      TEMPO 3000/3002 VRB25G40KT 4SM TSRA OVC030CB
     FM300300 35017G25KT P6SM VCSH BKN025 OVC100
     FM300900 35016G23KT P6SM FEW025 SCT100
     FM301600 35012KT P6SM SKC=

USA.gov is the U.S. government's official web portal to all federal, state and local government web resources and services.